LFPG 191230Z 09008KT 030V130 CAVOK 23/09 Q1024 NOSIG

ElémentsDécodage
LFPG Station météo située sur l'aérodrome de PARIS Charles-de-Gaulle
191230Z émis le 19 du mois à 12h30 UTC
09008KT vent du 090°, 08 noeuds
030V130 vent de direction variable entre 030° et 130°
CAVOK Ceiling And Visibility OK
- Visibilité de 10 Km ou plus
- Pas de nuage au-dessous de 1500m ou au-dessous de l'altitude minimale du secteur la plus élevée (si>1500m) et absence de CB
- pas de temps présent significatif
23/09 température 23°C, point de rosée 09°C
 soit une humidité relative de 41%
Q1024 la pression au niveau de la mer (QNH) est de 1024 hPa
NOSIG Pas de changement significatif prévu au cours des deux heures suivant l'heure de l'observation